sensor_id;sensor_type;location;lat;lon;timestamp;P1;durP1;ratioP1;P2;durP2;ratioP2
7031;SDS011;3557;48.880;8.328;2022-11-11T00:00:08;6.57;;;4.40;;
7031;SDS011;3557;48.880;8.328;2022-11-11T00:02:56;7.90;;;4.37;;
7031;SDS011;3557;48.880;8.328;2022-11-11T00:05:43;4.20;;;3.67;;
7031;SDS011;3557;48.880;8.328;2022-11-11T00:08:28;6.00;;;3.70;;
7031;SDS011;3557;48.880;8.328;2022-11-11T00:11:14;6.63;;;3.53;;
7031;SDS011;3557;48.880;8.328;2022-11-11T00:14:01;6.87;;;4.43;;
7031;SDS011;3557;48.880;8.328;2022-11-11T00:16:46;6.00;;;4.30;;
7031;SDS011;3557;48.880;8.328;2022-11-11T00:19:51;8.77;;;4.90;;
7031;SDS011;3557;48.880;8.328;2022-11-11T00:22:55;6.30;;;3.80;;
7031;SDS011;3557;48.880;8.328;2022-11-11T00:26:10;8.13;;;4.20;;
7031;SDS011;3557;48.880;8.328;2022-11-11T00:28:57;5.33;;;3.57;;
7031;SDS011;3557;48.880;8.328;2022-11-11T00:31:43;6.13;;;4.03;;
7031;SDS011;3557;48.880;8.328;2022-11-11T00:34:42;5.17;;;3.63;;
7031;SDS011;3557;48.880;8.328;2022-11-11T00:37:50;4.70;;;3.40;;
7031;SDS011;3557;48.880;8.328;2022-11-11T00:40:34;4.00;;;2.93;;
7031;SDS011;3557;48.880;8.328;2022-11-11T00:43:20;5.07;;;3.17;;
7031;SDS011;3557;48.880;8.328;2022-11-11T00:46:06;6.93;;;3.40;;
7031;SDS011;3557;48.880;8.328;2022-11-11T00:49:09;6.27;;;3.80;;
7031;SDS011;3557;48.880;8.328;2022-11-11T00:52:13;6.10;;;3.73;;
7031;SDS011;3557;48.880;8.328;2022-11-11T00:55:01;4.30;;;3.40;;
7031;SDS011;3557;48.880;8.328;2022-11-11T00:57:47;5.67;;;3.63;;
7031;SDS011;3557;48.880;8.328;2022-11-11T01:00:32;6.23;;;3.67;;
7031;SDS011;3557;48.880;8.328;2022-11-11T01:03:18;5.53;;;3.57;;
7031;SDS011;3557;48.880;8.328;2022-11-11T01:06:04;6.70;;;3.10;;
7031;SDS011;3557;48.880;8.328;2022-11-11T01:08:50;4.47;;;3.43;;
7031;SDS011;3557;48.880;8.328;2022-11-11T01:11:37;6.87;;;3.13;;
7031;SDS011;3557;48.880;8.328;2022-11-11T01:14:23;4.77;;;3.27;;
7031;SDS011;3557;48.880;8.328;2022-11-11T01:17:09;3.97;;;2.97;;
7031;SDS011;3557;48.880;8.328;2022-11-11T01:19:54;4.03;;;2.73;;
7031;SDS011;3557;48.880;8.328;2022-11-11T01:22:40;3.20;;;2.67;;
7031;SDS011;3557;48.880;8.328;2022-11-11T01:25:26;4.30;;;2.70;;
7031;SDS011;3557;48.880;8.328;2022-11-11T01:28:13;5.47;;;2.90;;
7031;SDS011;3557;48.880;8.328;2022-11-11T01:31:02;4.77;;;2.63;;
7031;SDS011;3557;48.880;8.328;2022-11-11T01:33:49;3.33;;;2.50;;
7031;SDS011;3557;48.880;8.328;2022-11-11T01:36:35;3.23;;;2.57;;
7031;SDS011;3557;48.880;8.328;2022-11-11T01:39:21;4.80;;;2.53;;
7031;SDS011;3557;48.880;8.328;2022-11-11T01:42:07;4.23;;;2.60;;
7031;SDS011;3557;48.880;8.328;2022-11-11T01:44:54;5.47;;;3.87;;
7031;SDS011;3557;48.880;8.328;2022-11-11T01:47:39;4.97;;;3.37;;
7031;SDS011;3557;48.880;8.328;2022-11-11T01:50:42;3.40;;;3.10;;
7031;SDS011;3557;48.880;8.328;2022-11-11T01:53:28;6.03;;;2.90;;
7031;SDS011;3557;48.880;8.328;2022-11-11T01:56:14;5.23;;;3.27;;
7031;SDS011;3557;48.880;8.328;2022-11-11T01:59:01;4.03;;;3.07;;
7031;SDS011;3557;48.880;8.328;2022-11-11T02:01:51;4.90;;;3.30;;
7031;SDS011;3557;48.880;8.328;2022-11-11T02:04:36;3.37;;;2.43;;
7031;SDS011;3557;48.880;8.328;2022-11-11T02:07:40;2.43;;;2.23;;
7031;SDS011;3557;48.880;8.328;2022-11-11T02:10:26;3.73;;;2.30;;
7031;SDS011;3557;48.880;8.328;2022-11-11T02:13:14;3.63;;;2.33;;
7031;SDS011;3557;48.880;8.328;2022-11-11T02:16:18;4.37;;;3.07;;
7031;SDS011;3557;48.880;8.328;2022-11-11T02:19:05;3.43;;;2.80;;
7031;SDS011;3557;48.880;8.328;2022-11-11T02:21:52;8.37;;;2.90;;
7031;SDS011;3557;48.880;8.328;2022-11-11T02:24:44;4.67;;;2.80;;
7031;SDS011;3557;48.880;8.328;2022-11-11T02:27:30;4.17;;;2.80;;
7031;SDS011;3557;48.880;8.328;2022-11-11T02:30:19;4.00;;;2.60;;
7031;SDS011;3557;48.880;8.328;2022-11-11T02:33:05;9.37;;;3.10;;
7031;SDS011;3557;48.880;8.328;2022-11-11T02:35:51;4.53;;;3.23;;
7031;SDS011;3557;48.880;8.328;2022-11-11T02:38:39;6.93;;;2.90;;
7031;SDS011;3557;48.880;8.328;2022-11-11T02:41:27;3.27;;;2.70;;
7031;SDS011;3557;48.880;8.328;2022-11-11T02:44:30;5.63;;;2.57;;
7031;SDS011;3557;48.880;8.328;2022-11-11T02:47:16;2.57;;;2.03;;
7031;SDS011;3557;48.880;8.328;2022-11-11T02:50:02;4.57;;;2.00;;
7031;SDS011;3557;48.880;8.328;2022-11-11T02:52:49;3.03;;;1.83;;
7031;SDS011;3557;48.880;8.328;2022-11-11T02:55:35;1.93;;;1.73;;
7031;SDS011;3557;48.880;8.328;2022-11-11T02:58:22;2.60;;;1.93;;
7031;SDS011;3557;48.880;8.328;2022-11-11T03:01:08;5.63;;;2.40;;
7031;SDS011;3557;48.880;8.328;2022-11-11T03:03:54;3.80;;;2.30;;
7031;SDS011;3557;48.880;8.328;2022-11-11T03:06:40;2.50;;;2.07;;
7031;SDS011;3557;48.880;8.328;2022-11-11T03:09:25;5.33;;;2.43;;
7031;SDS011;3557;48.880;8.328;2022-11-11T03:12:11;3.80;;;2.30;;
7031;SDS011;3557;48.880;8.328;2022-11-11T03:14:58;2.30;;;2.10;;
7031;SDS011;3557;48.880;8.328;2022-11-11T03:17:43;6.83;;;2.23;;
7031;SDS011;3557;48.880;8.328;2022-11-11T03:20:28;4.00;;;2.23;;
7031;SDS011;3557;48.880;8.328;2022-11-11T03:23:31;5.40;;;2.10;;
7031;SDS011;3557;48.880;8.328;2022-11-11T03:26:16;2.10;;;1.90;;
7031;SDS011;3557;48.880;8.328;2022-11-11T03:29:03;2.50;;;1.90;;
7031;SDS011;3557;48.880;8.328;2022-11-11T03:31:50;3.00;;;2.27;;
7031;SDS011;3557;48.880;8.328;2022-11-11T03:34:36;9.40;;;3.17;;
7031;SDS011;3557;48.880;8.328;2022-11-11T03:37:21;9.83;;;3.37;;
7031;SDS011;3557;48.880;8.328;2022-11-11T03:40:29;9.67;;;3.70;;
7031;SDS011;3557;48.880;8.328;2022-11-11T03:43:15;5.63;;;3.20;;
7031;SDS011;3557;48.880;8.328;2022-11-11T03:46:03;7.63;;;3.70;;
7031;SDS011;3557;48.880;8.328;2022-11-11T03:48:51;6.33;;;3.30;;
7031;SDS011;3557;48.880;8.328;2022-11-11T03:51:36;8.20;;;3.07;;
7031;SDS011;3557;48.880;8.328;2022-11-11T03:54:22;3.27;;;2.83;;
7031;SDS011;3557;48.880;8.328;2022-11-11T03:57:08;3.73;;;2.73;;
7031;SDS011;3557;48.880;8.328;2022-11-11T04:00:13;5.77;;;3.00;;
7031;SDS011;3557;48.880;8.328;2022-11-11T04:03:01;4.97;;;3.40;;
7031;SDS011;3557;48.880;8.328;2022-11-11T04:06:08;5.70;;;2.90;;
7031;SDS011;3557;48.880;8.328;2022-11-11T04:09:12;4.40;;;2.87;;
7031;SDS011;3557;48.880;8.328;2022-11-11T04:12:16;5.67;;;2.93;;
7031;SDS011;3557;48.880;8.328;2022-11-11T04:15:02;5.13;;;2.93;;
7031;SDS011;3557;48.880;8.328;2022-11-11T04:18:05;3.07;;;2.53;;
7031;SDS011;3557;48.880;8.328;2022-11-11T04:20:51;4.40;;;2.73;;
7031;SDS011;3557;48.880;8.328;2022-11-11T04:23:56;2.53;;;2.30;;
7031;SDS011;3557;48.880;8.328;2022-11-11T04:26:42;5.27;;;2.87;;
7031;SDS011;3557;48.880;8.328;2022-11-11T04:29:27;4.40;;;3.00;;
7031;SDS011;3557;48.880;8.328;2022-11-11T04:32:14;4.13;;;2.77;;
7031;SDS011;3557;48.880;8.328;2022-11-11T04:35:21;4.43;;;3.50;;
7031;SDS011;3557;48.880;8.328;2022-11-11T04:38:07;16.53;;;3.57;;
7031;SDS011;3557;48.880;8.328;2022-11-11T04:41:12;9.83;;;3.70;;
7031;SDS011;3557;48.880;8.328;2022-11-11T04:43:57;23.93;;;3.57;;
7031;SDS011;3557;48.880;8.328;2022-11-11T04:47:01;15.57;;;3.77;;
7031;SDS011;3557;48.880;8.328;2022-11-11T04:49:46;7.00;;;3.50;;
7031;SDS011;3557;48.880;8.328;2022-11-11T04:52:32;23.50;;;3.53;;
7031;SDS011;3557;48.880;8.328;2022-11-11T04:55:18;19.73;;;3.83;;
7031;SDS011;3557;48.880;8.328;2022-11-11T04:58:23;24.97;;;3.77;;
7031;SDS011;3557;48.880;8.328;2022-11-11T05:01:11;19.80;;;3.73;;
7031;SDS011;3557;48.880;8.328;2022-11-11T05:04:17;14.77;;;3.63;;
7031;SDS011;3557;48.880;8.328;2022-11-11T05:07:01;13.33;;;3.47;;
7031;SDS011;3557;48.880;8.328;2022-11-11T05:10:05;19.20;;;3.23;;
7031;SDS011;3557;48.880;8.328;2022-11-11T05:12:51;23.13;;;3.67;;
7031;SDS011;3557;48.880;8.328;2022-11-11T05:15:58;10.70;;;3.23;;
7031;SDS011;3557;48.880;8.328;2022-11-11T05:19:01;8.23;;;3.40;;
7031;SDS011;3557;48.880;8.328;2022-11-11T05:22:08;19.93;;;3.10;;
7031;SDS011;3557;48.880;8.328;2022-11-11T05:25:00;10.53;;;3.20;;
7031;SDS011;3557;48.880;8.328;2022-11-11T05:28:04;15.67;;;3.33;;
7031;SDS011;3557;48.880;8.328;2022-11-11T05:30:50;9.10;;;3.57;;
7031;SDS011;3557;48.880;8.328;2022-11-11T05:33:37;10.83;;;3.20;;
7031;SDS011;3557;48.880;8.328;2022-11-11T05:36:22;7.60;;;3.00;;
7031;SDS011;3557;48.880;8.328;2022-11-11T05:39:08;4.07;;;2.77;;
7031;SDS011;3557;48.880;8.328;2022-11-11T05:41:54;10.73;;;3.00;;
7031;SDS011;3557;48.880;8.328;2022-11-11T05:44:39;7.57;;;2.73;;
7031;SDS011;3557;48.880;8.328;2022-11-11T05:47:25;25.77;;;3.10;;
7031;SDS011;3557;48.880;8.328;2022-11-11T05:50:12;8.67;;;3.10;;
7031;SDS011;3557;48.880;8.328;2022-11-11T05:52:59;10.63;;;2.77;;
7031;SDS011;3557;48.880;8.328;2022-11-11T05:55:44;4.90;;;2.97;;
7031;SDS011;3557;48.880;8.328;2022-11-11T05:58:29;6.03;;;3.33;;
7031;SDS011;3557;48.880;8.328;2022-11-11T06:01:15;5.67;;;3.37;;
7031;SDS011;3557;48.880;8.328;2022-11-11T06:04:01;4.97;;;3.30;;
7031;SDS011;3557;48.880;8.328;2022-11-11T06:06:49;8.80;;;2.60;;
7031;SDS011;3557;48.880;8.328;2022-11-11T06:09:35;3.13;;;2.40;;
7031;SDS011;3557;48.880;8.328;2022-11-11T06:12:21;2.57;;;2.33;;
7031;SDS011;3557;48.880;8.328;2022-11-11T06:15:07;6.80;;;4.20;;
7031;SDS011;3557;48.880;8.328;2022-11-11T06:17:53;8.87;;;4.93;;
7031;SDS011;3557;48.880;8.328;2022-11-11T06:20:39;7.53;;;4.70;;
7031;SDS011;3557;48.880;8.328;2022-11-11T06:23:27;8.73;;;2.80;;
7031;SDS011;3557;48.880;8.328;2022-11-11T06:26:13;5.00;;;3.70;;
7031;SDS011;3557;48.880;8.328;2022-11-11T06:28:59;6.43;;;2.70;;
7031;SDS011;3557;48.880;8.328;2022-11-11T06:31:46;4.50;;;2.53;;
7031;SDS011;3557;48.880;8.328;2022-11-11T06:34:32;7.37;;;2.40;;
7031;SDS011;3557;48.880;8.328;2022-11-11T06:37:17;6.27;;;2.80;;
7031;SDS011;3557;48.880;8.328;2022-11-11T06:40:04;2.83;;;2.43;;
7031;SDS011;3557;48.880;8.328;2022-11-11T06:42:51;5.23;;;2.47;;
7031;SDS011;3557;48.880;8.328;2022-11-11T06:45:37;6.07;;;2.60;;
7031;SDS011;3557;48.880;8.328;2022-11-11T06:48:24;2.90;;;2.50;;
7031;SDS011;3557;48.880;8.328;2022-11-11T06:51:12;18.57;;;2.80;;
7031;SDS011;3557;48.880;8.328;2022-11-11T06:53:58;8.77;;;2.70;;
7031;SDS011;3557;48.880;8.328;2022-11-11T06:56:47;9.37;;;2.50;;
7031;SDS011;3557;48.880;8.328;2022-11-11T06:59:32;6.00;;;2.80;;
7031;SDS011;3557;48.880;8.328;2022-11-11T07:02:18;8.60;;;2.90;;
7031;SDS011;3557;48.880;8.328;2022-11-11T07:05:04;25.03;;;3.13;;
7031;SDS011;3557;48.880;8.328;2022-11-11T07:07:50;41.90;;;3.90;;
7031;SDS011;3557;48.880;8.328;2022-11-11T07:10:36;40.37;;;3.83;;
7031;SDS011;3557;48.880;8.328;2022-11-11T07:13:26;7.40;;;2.90;;
7031;SDS011;3557;48.880;8.328;2022-11-11T07:16:11;6.37;;;3.20;;
7031;SDS011;3557;48.880;8.328;2022-11-11T07:18:57;30.27;;;3.77;;
7031;SDS011;3557;48.880;8.328;2022-11-11T07:21:42;19.10;;;4.63;;
7031;SDS011;3557;48.880;8.328;2022-11-11T07:24:28;9.23;;;4.20;;
7031;SDS011;3557;48.880;8.328;2022-11-11T07:27:14;22.03;;;3.83;;
7031;SDS011;3557;48.880;8.328;2022-11-11T07:30:01;22.17;;;3.70;;
7031;SDS011;3557;48.880;8.328;2022-11-11T07:32:49;24.33;;;4.13;;
7031;SDS011;3557;48.880;8.328;2022-11-11T07:35:36;20.93;;;4.00;;
7031;SDS011;3557;48.880;8.328;2022-11-11T07:38:22;11.87;;;4.50;;
7031;SDS011;3557;48.880;8.328;2022-11-11T07:41:07;7.00;;;4.00;;
7031;SDS011;3557;48.880;8.328;2022-11-11T07:43:53;14.37;;;3.73;;
7031;SDS011;3557;48.880;8.328;2022-11-11T07:46:40;20.20;;;3.80;;
7031;SDS011;3557;48.880;8.328;2022-11-11T07:49:26;13.07;;;4.27;;
7031;SDS011;3557;48.880;8.328;2022-11-11T07:52:11;16.73;;;3.70;;
7031;SDS011;3557;48.880;8.328;2022-11-11T07:54:57;17.37;;;4.23;;
7031;SDS011;3557;48.880;8.328;2022-11-11T07:57:42;12.60;;;4.00;;
7031;SDS011;3557;48.880;8.328;2022-11-11T08:00:28;29.33;;;4.83;;
7031;SDS011;3557;48.880;8.328;2022-11-11T08:03:15;12.50;;;4.30;;
7031;SDS011;3557;48.880;8.328;2022-11-11T08:06:01;12.67;;;4.10;;
7031;SDS011;3557;48.880;8.328;2022-11-11T08:08:47;11.17;;;4.30;;
7031;SDS011;3557;48.880;8.328;2022-11-11T08:11:33;4.33;;;3.93;;
7031;SDS011;3557;48.880;8.328;2022-11-11T08:14:36;12.57;;;4.57;;
7031;SDS011;3557;48.880;8.328;2022-11-11T08:17:22;10.60;;;4.27;;
7031;SDS011;3557;48.880;8.328;2022-11-11T08:20:10;13.10;;;4.80;;
7031;SDS011;3557;48.880;8.328;2022-11-11T08:22:57;15.63;;;5.30;;
7031;SDS011;3557;48.880;8.328;2022-11-11T08:25:42;13.47;;;5.10;;
7031;SDS011;3557;48.880;8.328;2022-11-11T08:28:30;10.67;;;4.93;;
7031;SDS011;3557;48.880;8.328;2022-11-11T08:31:17;8.33;;;5.10;;
7031;SDS011;3557;48.880;8.328;2022-11-11T08:34:03;11.40;;;4.97;;
7031;SDS011;3557;48.880;8.328;2022-11-11T08:36:51;7.10;;;4.60;;
7031;SDS011;3557;48.880;8.328;2022-11-11T08:39:36;14.70;;;4.73;;
7031;SDS011;3557;48.880;8.328;2022-11-11T08:42:22;22.90;;;5.40;;
7031;SDS011;3557;48.880;8.328;2022-11-11T08:45:08;11.33;;;4.90;;
7031;SDS011;3557;48.880;8.328;2022-11-11T08:47:53;6.80;;;4.43;;
7031;SDS011;3557;48.880;8.328;2022-11-11T08:50:39;6.10;;;4.13;;
7031;SDS011;3557;48.880;8.328;2022-11-11T08:53:27;6.07;;;4.07;;
7031;SDS011;3557;48.880;8.328;2022-11-11T08:56:13;9.97;;;4.47;;
7031;SDS011;3557;48.880;8.328;2022-11-11T08:58:58;4.20;;;3.23;;
7031;SDS011;3557;48.880;8.328;2022-11-11T09:01:44;3.53;;;2.83;;
7031;SDS011;3557;48.880;8.328;2022-11-11T09:04:29;3.87;;;3.00;;
7031;SDS011;3557;48.880;8.328;2022-11-11T09:07:15;4.50;;;3.03;;
7031;SDS011;3557;48.880;8.328;2022-11-11T09:10:03;17.87;;;2.87;;
7031;SDS011;3557;48.880;8.328;2022-11-11T09:12:54;15.70;;;2.70;;
7031;SDS011;3557;48.880;8.328;2022-11-11T09:15:40;10.27;;;2.50;;
7031;SDS011;3557;48.880;8.328;2022-11-11T09:18:26;23.83;;;2.93;;
7031;SDS011;3557;48.880;8.328;2022-11-11T09:21:14;10.23;;;2.87;;
7031;SDS011;3557;48.880;8.328;2022-11-11T09:23:59;15.33;;;2.70;;
7031;SDS011;3557;48.880;8.328;2022-11-11T09:26:47;11.37;;;3.07;;
7031;SDS011;3557;48.880;8.328;2022-11-11T09:29:33;12.53;;;3.00;;
7031;SDS011;3557;48.880;8.328;2022-11-11T09:32:19;15.13;;;2.73;;
7031;SDS011;3557;48.880;8.328;2022-11-11T09:35:05;7.73;;;2.57;;
7031;SDS011;3557;48.880;8.328;2022-11-11T09:37:52;11.43;;;2.80;;
7031;SDS011;3557;48.880;8.328;2022-11-11T09:40:43;5.37;;;2.80;;
7031;SDS011;3557;48.880;8.328;2022-11-11T09:43:45;6.90;;;3.17;;
7031;SDS011;3557;48.880;8.328;2022-11-11T09:46:38;4.43;;;2.50;;
7031;SDS011;3557;48.880;8.328;2022-11-11T09:49:41;3.07;;;2.50;;
7031;SDS011;3557;48.880;8.328;2022-11-11T09:52:39;2.95;;;2.70;;
7031;SDS011;3557;48.880;8.328;2022-11-11T09:55:31;4.65;;;2.70;;
7031;SDS011;3557;48.880;8.328;2022-11-11T09:58:21;2.92;;;2.63;;
7031;SDS011;3557;48.880;8.328;2022-11-11T10:01:15;3.22;;;2.55;;
7031;SDS011;3557;48.880;8.328;2022-11-11T10:04:06;5.25;;;2.50;;
7031;SDS011;3557;48.880;8.328;2022-11-11T10:07:10;2.92;;;2.60;;
7031;SDS011;3557;48.880;8.328;2022-11-11T10:10:19;3.20;;;2.50;;
7031;SDS011;3557;48.880;8.328;2022-11-11T10:13:11;2.47;;;2.28;;
7031;SDS011;3557;48.880;8.328;2022-11-11T10:16:02;3.35;;;3.00;;
7031;SDS011;3557;48.880;8.328;2022-11-11T10:19:01;4.57;;;3.10;;
7031;SDS011;3557;48.880;8.328;2022-11-11T10:22:04;3.03;;;2.70;;
7031;SDS011;3557;48.880;8.328;2022-11-11T10:25:07;3.20;;;2.60;;
7031;SDS011;3557;48.880;8.328;2022-11-11T10:28:04;3.33;;;2.90;;
7031;SDS011;3557;48.880;8.328;2022-11-11T10:30:58;3.10;;;2.72;;
7031;SDS011;3557;48.880;8.328;2022-11-11T10:33:48;3.33;;;3.03;;
7031;SDS011;3557;48.880;8.328;2022-11-11T10:36:43;3.50;;;3.17;;
7031;SDS011;3557;48.880;8.328;2022-11-11T10:39:37;4.05;;;3.15;;
7031;SDS011;3557;48.880;8.328;2022-11-11T10:42:39;4.85;;;3.08;;
7031;SDS011;3557;48.880;8.328;2022-11-11T10:45:26;5.88;;;4.82;;
7031;SDS011;3557;48.880;8.328;2022-11-11T10:48:17;5.32;;;4.28;;
7031;SDS011;3557;48.880;8.328;2022-11-11T10:51:08;5.68;;;4.53;;
7031;SDS011;3557;48.880;8.328;2022-11-11T10:53:58;6.13;;;4.45;;
7031;SDS011;3557;48.880;8.328;2022-11-11T10:56:50;11.65;;;9.85;;
7031;SDS011;3557;48.880;8.328;2022-11-11T10:59:43;7.25;;;4.15;;
7031;SDS011;3557;48.880;8.328;2022-11-11T11:02:37;5.18;;;4.18;;
7031;SDS011;3557;48.880;8.328;2022-11-11T11:05:30;4.45;;;3.53;;
7031;SDS011;3557;48.880;8.328;2022-11-11T11:08:23;5.80;;;3.78;;
7031;SDS011;3557;48.880;8.328;2022-11-11T11:11:15;9.70;;;8.80;;
7031;SDS011;3557;48.880;8.328;2022-11-11T11:14:05;7.78;;;6.47;;
7031;SDS011;3557;48.880;8.328;2022-11-11T11:16:57;5.97;;;5.45;;
7031;SDS011;3557;48.880;8.328;2022-11-11T11:20:06;5.28;;;4.20;;
7031;SDS011;3557;48.880;8.328;2022-11-11T11:22:56;6.95;;;6.32;;
7031;SDS011;3557;48.880;8.328;2022-11-11T11:25:44;7.50;;;4.80;;
7031;SDS011;3557;48.880;8.328;2022-11-11T11:28:52;3.85;;;3.38;;
7031;SDS011;3557;48.880;8.328;2022-11-11T11:31:40;8.80;;;8.00;;
7031;SDS011;3557;48.880;8.328;2022-11-11T11:34:39;4.50;;;4.10;;
7031;SDS011;3557;48.880;8.328;2022-11-11T11:37:32;5.20;;;4.65;;
7031;SDS011;3557;48.880;8.328;2022-11-11T11:40:46;6.78;;;5.53;;
7031;SDS011;3557;48.880;8.328;2022-11-11T11:43:35;6.07;;;5.15;;
7031;SDS011;3557;48.880;8.328;2022-11-11T11:46:26;4.45;;;3.70;;
7031;SDS011;3557;48.880;8.328;2022-11-11T11:49:18;4.68;;;4.15;;
7031;SDS011;3557;48.880;8.328;2022-11-11T11:52:15;4.60;;;4.20;;
7031;SDS011;3557;48.880;8.328;2022-11-11T11:55:05;3.67;;;3.38;;
7031;SDS011;3557;48.880;8.328;2022-11-11T11:58:08;3.88;;;3.53;;
7031;SDS011;3557;48.880;8.328;2022-11-11T12:01:07;5.57;;;3.75;;
7031;SDS011;3557;48.880;8.328;2022-11-11T12:04:06;5.07;;;4.18;;
7031;SDS011;3557;48.880;8.328;2022-11-11T12:07:10;5.43;;;3.97;;
7031;SDS011;3557;48.880;8.328;2022-11-11T12:10:06;6.10;;;4.05;;
7031;SDS011;3557;48.880;8.328;2022-11-11T12:13:03;4.85;;;3.90;;
7031;SDS011;3557;48.880;8.328;2022-11-11T12:16:02;4.95;;;4.13;;
7031;SDS011;3557;48.880;8.328;2022-11-11T12:19:13;4.55;;;4.15;;
7031;SDS011;3557;48.880;8.328;2022-11-11T12:22:24;5.93;;;4.50;;
7031;SDS011;3557;48.880;8.328;2022-11-11T12:25:22;4.53;;;4.13;;
7031;SDS011;3557;48.880;8.328;2022-11-11T12:28:26;8.25;;;4.57;;
7031;SDS011;3557;48.880;8.328;2022-11-11T12:31:33;5.72;;;4.88;;
7031;SDS011;3557;48.880;8.328;2022-11-11T12:37:52;6.47;;;4.70;;
7031;SDS011;3557;48.880;8.328;2022-11-11T12:40:54;13.93;;;6.63;;
7031;SDS011;3557;48.880;8.328;2022-11-11T12:43:53;5.72;;;4.75;;
7031;SDS011;3557;48.880;8.328;2022-11-11T12:46:48;7.20;;;5.10;;
7031;SDS011;3557;48.880;8.328;2022-11-11T12:49:48;6.15;;;5.03;;
7031;SDS011;3557;48.880;8.328;2022-11-11T12:52:46;8.15;;;5.05;;
7031;SDS011;3557;48.880;8.328;2022-11-11T12:55:46;7.10;;;5.07;;
7031;SDS011;3557;48.880;8.328;2022-11-11T12:58:43;6.85;;;5.45;;
7031;SDS011;3557;48.880;8.328;2022-11-11T13:01:37;5.28;;;4.47;;
7031;SDS011;3557;48.880;8.328;2022-11-11T13:04:40;6.05;;;5.25;;
7031;SDS011;3557;48.880;8.328;2022-11-11T13:07:38;5.57;;;5.05;;
7031;SDS011;3557;48.880;8.328;2022-11-11T13:10:57;6.75;;;5.00;;
7031;SDS011;3557;48.880;8.328;2022-11-11T13:13:51;7.97;;;5.30;;
7031;SDS011;3557;48.880;8.328;2022-11-11T13:16:49;6.68;;;5.40;;
7031;SDS011;3557;48.880;8.328;2022-11-11T13:19:35;7.90;;;5.57;;
7031;SDS011;3557;48.880;8.328;2022-11-11T13:22:25;6.90;;;5.53;;
7031;SDS011;3557;48.880;8.328;2022-11-11T13:25:13;10.07;;;5.63;;
7031;SDS011;3557;48.880;8.328;2022-11-11T13:28:05;10.35;;;5.20;;
7031;SDS011;3557;48.880;8.328;2022-11-11T13:31:05;5.95;;;4.97;;
7031;SDS011;3557;48.880;8.328;2022-11-11T13:34:01;7.20;;;5.13;;
7031;SDS011;3557;48.880;8.328;2022-11-11T13:36:50;10.35;;;5.57;;
7031;SDS011;3557;48.880;8.328;2022-11-11T13:39:39;8.77;;;6.10;;
7031;SDS011;3557;48.880;8.328;2022-11-11T13:42:32;9.23;;;6.22;;
7031;SDS011;3557;48.880;8.328;2022-11-11T13:45:25;8.70;;;6.18;;
7031;SDS011;3557;48.880;8.328;2022-11-11T13:48:18;8.80;;;5.82;;
7031;SDS011;3557;48.880;8.328;2022-11-11T13:51:10;9.80;;;6.13;;
7031;SDS011;3557;48.880;8.328;2022-11-11T13:54:19;9.43;;;6.60;;
7031;SDS011;3557;48.880;8.328;2022-11-11T13:57:14;69.85;;;31.00;;
7031;SDS011;3557;48.880;8.328;2022-11-11T14:00:23;72.13;;;35.30;;
7031;SDS011;3557;48.880;8.328;2022-11-11T14:03:28;9.40;;;6.95;;
7031;SDS011;3557;48.880;8.328;2022-11-11T14:06:28;8.82;;;6.13;;
7031;SDS011;3557;48.880;8.328;2022-11-11T14:12:43;8.52;;;6.72;;
7031;SDS011;3557;48.880;8.328;2022-11-11T14:15:38;12.95;;;7.43;;
7031;SDS011;3557;48.880;8.328;2022-11-11T14:18:32;10.32;;;7.57;;
7031;SDS011;3557;48.880;8.328;2022-11-11T14:21:43;9.07;;;6.80;;
7031;SDS011;3557;48.880;8.328;2022-11-11T14:24:35;8.15;;;5.82;;
7031;SDS011;3557;48.880;8.328;2022-11-11T14:27:24;10.23;;;5.53;;
7031;SDS011;3557;48.880;8.328;2022-11-11T14:30:27;7.20;;;6.03;;
7031;SDS011;3557;48.880;8.328;2022-11-11T14:33:28;6.18;;;5.30;;
7031;SDS011;3557;48.880;8.328;2022-11-11T14:36:29;7.10;;;6.30;;
7031;SDS011;3557;48.880;8.328;2022-11-11T14:39:28;7.60;;;6.55;;
7031;SDS011;3557;48.880;8.328;2022-11-11T14:42:41;10.02;;;7.20;;
7031;SDS011;3557;48.880;8.328;2022-11-11T14:48:51;10.32;;;6.85;;
7031;SDS011;3557;48.880;8.328;2022-11-11T14:51:54;9.25;;;6.85;;
7031;SDS011;3557;48.880;8.328;2022-11-11T14:54:45;9.00;;;7.05;;
7031;SDS011;3557;48.880;8.328;2022-11-11T14:57:38;8.50;;;7.18;;
7031;SDS011;3557;48.880;8.328;2022-11-11T15:00:27;8.50;;;7.00;;
7031;SDS011;3557;48.880;8.328;2022-11-11T15:03:16;7.90;;;6.40;;
7031;SDS011;3557;48.880;8.328;2022-11-11T15:06:12;8.73;;;6.70;;
7031;SDS011;3557;48.880;8.328;2022-11-11T15:09:05;13.70;;;8.27;;
7031;SDS011;3557;48.880;8.328;2022-11-11T15:12:11;9.15;;;7.28;;
7031;SDS011;3557;48.880;8.328;2022-11-11T15:15:09;8.80;;;7.67;;
7031;SDS011;3557;48.880;8.328;2022-11-11T15:18:01;12.98;;;9.90;;
7031;SDS011;3557;48.880;8.328;2022-11-11T15:21:00;10.10;;;8.48;;
7031;SDS011;3557;48.880;8.328;2022-11-11T15:23:56;11.50;;;8.65;;
7031;SDS011;3557;48.880;8.328;2022-11-11T15:26:56;11.15;;;8.30;;
7031;SDS011;3557;48.880;8.328;2022-11-11T15:29:56;12.23;;;8.80;;
7031;SDS011;3557;48.880;8.328;2022-11-11T15:32:58;13.70;;;9.27;;
7031;SDS011;3557;48.880;8.328;2022-11-11T15:35:55;10.68;;;8.18;;
7031;SDS011;3557;48.880;8.328;2022-11-11T15:38:48;11.45;;;8.73;;
7031;SDS011;3557;48.880;8.328;2022-11-11T15:41:37;11.80;;;9.13;;
7031;SDS011;3557;48.880;8.328;2022-11-11T15:44:27;13.13;;;9.55;;
7031;SDS011;3557;48.880;8.328;2022-11-11T15:47:17;13.20;;;10.10;;
7031;SDS011;3557;48.880;8.328;2022-11-11T15:50:14;12.77;;;9.90;;
7031;SDS011;3557;48.880;8.328;2022-11-11T15:53:02;13.93;;;10.15;;
7031;SDS011;3557;48.880;8.328;2022-11-11T15:55:52;15.38;;;10.73;;
7031;SDS011;3557;48.880;8.328;2022-11-11T15:58:41;14.63;;;10.47;;
7031;SDS011;3557;48.880;8.328;2022-11-11T16:01:27;12.95;;;9.73;;
7031;SDS011;3557;48.880;8.328;2022-11-11T16:04:14;12.25;;;9.35;;
7031;SDS011;3557;48.880;8.328;2022-11-11T16:07:02;23.65;;;9.57;;
7031;SDS011;3557;48.880;8.328;2022-11-11T16:09:48;66.40;;;10.40;;
7031;SDS011;3557;48.880;8.328;2022-11-11T16:12:36;17.33;;;9.82;;
7031;SDS011;3557;48.880;8.328;2022-11-11T16:15:33;16.10;;;9.52;;
7031;SDS011;3557;48.880;8.328;2022-11-11T16:18:25;13.63;;;9.15;;
7031;SDS011;3557;48.880;8.328;2022-11-11T16:21:15;14.63;;;9.50;;
7031;SDS011;3557;48.880;8.328;2022-11-11T16:24:06;24.13;;;10.23;;
7031;SDS011;3557;48.880;8.328;2022-11-11T16:27:10;16.80;;;9.57;;
7031;SDS011;3557;48.880;8.328;2022-11-11T16:30:13;13.50;;;9.30;;
7031;SDS011;3557;48.880;8.328;2022-11-11T16:33:04;15.07;;;8.73;;
7031;SDS011;3557;48.880;8.328;2022-11-11T16:36:06;25.03;;;8.47;;
7031;SDS011;3557;48.880;8.328;2022-11-11T16:38:53;16.37;;;7.83;;
7031;SDS011;3557;48.880;8.328;2022-11-11T16:41:39;24.05;;;7.93;;
7031;SDS011;3557;48.880;8.328;2022-11-11T16:44:29;13.40;;;7.80;;
7031;SDS011;3557;48.880;8.328;2022-11-11T16:47:39;37.67;;;7.43;;
7031;SDS011;3557;48.880;8.328;2022-11-11T16:50:34;27.07;;;8.57;;
7031;SDS011;3557;48.880;8.328;2022-11-11T16:53:41;14.90;;;7.80;;
7031;SDS011;3557;48.880;8.328;2022-11-11T16:56:30;12.70;;;7.13;;
7031;SDS011;3557;48.880;8.328;2022-11-11T16:59:17;14.18;;;7.57;;
7031;SDS011;3557;48.880;8.328;2022-11-11T17:02:13;12.17;;;7.70;;
7031;SDS011;3557;48.880;8.328;2022-11-11T17:05:00;25.63;;;7.15;;
7031;SDS011;3557;48.880;8.328;2022-11-11T17:07:47;9.60;;;6.87;;
7031;SDS011;3557;48.880;8.328;2022-11-11T17:10:33;24.43;;;7.23;;
7031;SDS011;3557;48.880;8.328;2022-11-11T17:13:23;18.10;;;7.63;;
7031;SDS011;3557;48.880;8.328;2022-11-11T17:16:09;10.50;;;7.60;;
7031;SDS011;3557;48.880;8.328;2022-11-11T17:18:57;12.90;;;8.40;;
7031;SDS011;3557;48.880;8.328;2022-11-11T17:21:44;14.13;;;8.30;;
7031;SDS011;3557;48.880;8.328;2022-11-11T17:24:31;10.30;;;7.53;;
7031;SDS011;3557;48.880;8.328;2022-11-11T17:27:17;12.77;;;8.17;;
7031;SDS011;3557;48.880;8.328;2022-11-11T17:30:02;29.27;;;8.50;;
7031;SDS011;3557;48.880;8.328;2022-11-11T17:32:49;24.30;;;7.97;;
7031;SDS011;3557;48.880;8.328;2022-11-11T17:35:35;16.50;;;8.83;;
7031;SDS011;3557;48.880;8.328;2022-11-11T17:38:20;27.83;;;8.70;;
7031;SDS011;3557;48.880;8.328;2022-11-11T17:41:09;13.03;;;7.67;;
7031;SDS011;3557;48.880;8.328;2022-11-11T17:43:58;12.27;;;7.83;;
7031;SDS011;3557;48.880;8.328;2022-11-11T17:46:44;13.13;;;8.23;;
7031;SDS011;3557;48.880;8.328;2022-11-11T17:49:30;13.17;;;8.83;;